Time;durP1;ratioP1;P1;durP2;ratioP2;P2;SDS_P1;SDS_P2;PMS_P1;PMS_P2;Temp;Humidity;BMP_temperature;BMP_pressure;BME280_temperature;BME280_humidity;BME280_pressure;Samples;Min_cycle;Max_cycle;Signal;HPM_P1;HPM_P2
2021/09/19 00:01:11;;;;;;;33.70;28.23;;;;;14.20;100869.00;;;;10515352;28;20219;-76
2021/09/19 00:06:13;;;;;;;33.37;27.80;;;;;14.20;100873.00;;;;10443856;28;20224;-76
2021/09/19 00:11:14;;;;;;;33.47;28.13;;;;;14.20;100863.00;;;;10444540;28;20292;-76
2021/09/19 00:16:16;;;;;;;31.17;26.83;;;;;14.10;100861.00;;;;10460149;28;20652;-76
2021/09/19 00:21:17;;;;;;;34.10;27.57;;;;;14.10;100874.00;;;;10475970;28;20788;-76
2021/09/19 00:26:18;;;;;;;32.10;27.13;;;;;14.00;100863.00;;;;10476476;28;20193;-76
2021/09/19 00:31:20;;;;;;;35.60;27.90;;;;;14.00;100855.00;;;;10459896;28;20221;-76
2021/09/19 00:36:21;;;;;;;33.50;27.00;;;;;14.00;100855.00;;;;10452000;28;20196;-76
2021/09/19 00:41:22;;;;;;;34.30;28.30;;;;;13.90;100854.00;;;;10500503;28;20221;-76
2021/09/19 00:46:23;;;;;;;32.53;27.53;;;;;13.90;100849.00;;;;10483794;28;20707;-76
2021/09/19 00:51:27;;;;;;;33.03;27.57;;;;;13.80;100834.00;;;;10516577;28;20312;-76
2021/09/19 00:56:29;;;;;;;32.50;27.63;;;;;13.70;100837.00;;;;10534578;28;20189;-76
2021/09/19 01:01:31;;;;;;;35.50;28.27;;;;;13.70;100850.00;;;;10460781;28;20591;-77
2021/09/19 01:06:35;;;;;;;40.53;30.20;;;;;13.70;100844.00;;;;10476437;28;20252;-77
2021/09/19 01:11:37;;;;;;;33.40;28.20;;;;;13.60;100843.00;;;;10454537;28;20258;-77
2021/09/19 01:16:39;;;;;;;33.10;28.70;;;;;13.60;100854.00;;;;10520944;28;20734;-77
2021/09/19 01:21:40;;;;;;;38.70;29.17;;;;;13.60;100858.00;;;;10479816;28;20312;-77
2021/09/19 01:26:41;;;;;;;33.70;28.50;;;;;13.50;100862.00;;;;10487444;28;20193;-77
2021/09/19 01:31:43;;;;;;;37.37;29.03;;;;;13.50;100851.00;;;;10544166;28;20207;-79
2021/09/19 01:36:44;;;;;;;36.93;29.57;;;;;13.50;100845.00;;;;10463112;28;20694;-77
2021/09/19 01:41:48;;;;;;;37.87;28.07;;;;;13.50;100844.00;;;;10503742;28;20216;-77
2021/09/19 01:46:49;;;;;;;34.87;29.03;;;;;13.40;100843.00;;;;10504798;28;20208;-77
2021/09/19 01:51:50;;;;;;;34.40;28.73;;;;;13.40;100835.00;;;;10504691;28;20213;-77
2021/09/19 01:56:52;;;;;;;31.10;27.67;;;;;13.30;100833.00;;;;10490048;28;20192;-77
2021/09/19 02:01:55;;;;;;;36.33;28.10;;;;;13.20;100828.00;;;;10540466;28;20193;-77
2021/09/19 02:06:57;;;;;;;33.67;28.03;;;;;13.20;100820.00;;;;10460888;28;20193;-77
2021/09/19 02:11:58;;;;;;;37.80;29.77;;;;;13.20;100815.00;;;;10444849;28;20217;-77
2021/09/19 02:17:00;;;;;;;35.83;28.97;;;;;13.20;100819.00;;;;10485011;28;20682;-76
2021/09/19 02:22:02;;;;;;;36.53;29.53;;;;;13.20;100813.00;;;;10502168;28;20713;-77
2021/09/19 02:27:04;;;;;;;34.47;28.93;;;;;13.20;100822.00;;;;10473377;28;20291;-76
2021/09/19 02:32:05;;;;;;;36.73;29.97;;;;;13.10;100820.00;;;;10521380;28;20235;-77
2021/09/19 02:37:07;;;;;;;36.43;29.07;;;;;13.10;100819.00;;;;10430679;28;20205;-77
2021/09/19 02:42:08;;;;;;;36.87;27.77;;;;;13.10;100832.00;;;;10461777;28;20739;-78
2021/09/19 02:47:09;;;;;;;38.37;28.27;;;;;13.00;100820.00;;;;10460583;28;20225;-77
2021/09/19 02:52:11;;;;;;;36.53;29.23;;;;;13.00;100819.00;;;;10435283;28;20610;-77
2021/09/19 02:57:12;;;;;;;42.80;30.33;;;;;13.00;100827.00;;;;10458243;28;20292;-77
2021/09/19 03:02:13;;;;;;;38.43;30.17;;;;;13.00;100824.00;;;;10534903;28;20770;-78
2021/09/19 03:07:14;;;;;;;34.80;27.90;;;;;13.00;100816.00;;;;10491807;28;20201;-77
2021/09/19 03:12:16;;;;;;;35.60;29.37;;;;;13.00;100819.00;;;;10492120;28;20252;-76
2021/09/19 03:17:17;;;;;;;34.77;27.53;;;;;12.90;100814.00;;;;10508999;28;20939;-77
2021/09/19 03:22:18;;;;;;;33.63;27.87;;;;;12.90;100814.00;;;;10475380;28;20204;-77
2021/09/19 03:27:19;;;;;;;34.80;28.60;;;;;12.80;100818.00;;;;10498352;28;20230;-77
2021/09/19 03:32:20;;;;;;;36.80;29.87;;;;;12.80;100817.00;;;;10548514;28;20219;-77
2021/09/19 03:37:22;;;;;;;35.20;27.67;;;;;12.80;100811.00;;;;10464897;28;20228;-77
2021/09/19 03:42:23;;;;;;;35.23;27.87;;;;;12.70;100822.00;;;;10449654;28;20217;-77
2021/09/19 03:47:24;;;;;;;36.50;29.47;;;;;12.60;100818.00;;;;10466249;28;20188;-77
2021/09/19 03:52:25;;;;;;;34.67;28.27;;;;;12.60;100820.00;;;;10447610;28;20821;-77
2021/09/19 03:57:26;;;;;;;38.87;28.57;;;;;12.50;100817.00;;;;10489766;28;20208;-77
2021/09/19 04:02:28;;;;;;;35.23;29.57;;;;;12.50;100805.00;;;;10488451;28;20185;-76
2021/09/19 04:07:29;;;;;;;37.00;28.77;;;;;12.40;100802.00;;;;10490616;28;20209;-77
2021/09/19 04:12:30;;;;;;;38.33;29.10;;;;;12.40;100797.00;;;;10472403;28;20225;-77
2021/09/19 04:17:32;;;;;;;39.53;30.33;;;;;12.30;100802.00;;;;10506325;28;20196;-77
2021/09/19 04:22:34;;;;;;;39.60;31.07;;;;;12.30;100798.00;;;;10522202;28;20197;-77
2021/09/19 04:27:36;;;;;;;39.43;30.47;;;;;12.30;100799.00;;;;10504289;28;20207;-77
2021/09/19 04:32:38;;;;;;;43.77;30.57;;;;;12.20;100807.00;;;;10501569;28;20655;-77
2021/09/19 04:37:39;;;;;;;39.13;29.57;;;;;12.20;100815.00;;;;10488951;28;20196;-77
2021/09/19 04:42:41;;;;;;;44.93;31.07;;;;;12.10;100807.00;;;;10471105;28;20319;-77
2021/09/19 04:47:42;;;;;;;42.53;29.70;;;;;12.10;100811.00;;;;10489693;28;20196;-77
2021/09/19 04:52:47;;;;;;;42.10;31.00;;;;;12.10;100821.00;;;;10504497;28;20209;-76
2021/09/19 04:57:49;;;;;;;43.70;31.70;;;;;12.10;100820.00;;;;10474488;28;20201;-77
2021/09/19 05:02:50;;;;;;;51.10;33.37;;;;;12.10;100819.00;;;;10469943;28;20193;-76
2021/09/19 05:07:52;;;;;;;44.50;33.07;;;;;12.10;100814.00;;;;10445226;28;20205;-76
2021/09/19 05:12:53;;;;;;;45.03;32.90;;;;;12.10;100820.00;;;;10429660;28;20235;-77
2021/09/19 05:17:54;;;;;;;44.67;33.23;;;;;12.10;100818.00;;;;10446592;28;20248;-77
2021/09/19 05:22:55;;;;;;;48.90;36.40;;;;;12.10;100816.00;;;;10446798;28;20196;-76
2021/09/19 05:27:56;;;;;;;47.50;34.33;;;;;12.10;100815.00;;;;10444067;28;20205;-76
2021/09/19 05:32:58;;;;;;;47.73;36.40;;;;;12.20;100822.00;;;;10429089;28;20225;-77
2021/09/19 05:38:04;;;;;;;54.10;34.97;;;;;12.20;100829.00;;;;10460433;28;20196;-76
2021/09/19 05:43:06;;;;;;;51.80;37.10;;;;;12.30;100834.00;;;;10459905;28;20493;-77
2021/09/19 05:48:08;;;;;;;54.40;37.33;;;;;12.40;100835.00;;;;10460065;28;20871;-76
2021/09/19 05:53:09;;;;;;;50.43;36.50;;;;;12.60;100832.00;;;;10435771;28;20688;-77
2021/09/19 05:58:10;;;;;;;46.37;35.73;;;;;12.70;100839.00;;;;10456851;28;20213;-77
2021/09/19 06:03:11;;;;;;;57.10;38.43;;;;;12.80;100847.00;;;;10501660;28;20201;-77
2021/09/19 06:08:13;;;;;;;49.07;37.00;;;;;12.90;100854.00;;;;10463536;28;20694;-77
2021/09/19 06:13:14;;;;;;;44.03;34.57;;;;;13.00;100851.00;;;;10479492;28;20224;-77
2021/09/19 06:18:15;;;;;;;44.23;34.57;;;;;13.00;100851.00;;;;10446379;28;20189;-76
2021/09/19 06:23:16;;;;;;;46.37;34.47;;;;;13.10;100852.00;;;;10460565;28;20764;-77
2021/09/19 06:28:18;;;;;;;44.43;33.40;;;;;13.20;100861.00;;;;10475048;28;20292;-76
2021/09/19 06:33:19;;;;;;;46.43;34.37;;;;;13.30;100854.00;;;;10484075;28;20208;-77
2021/09/19 06:38:21;;;;;;;47.00;33.87;;;;;13.40;100858.00;;;;10442752;28;20624;-77
2021/09/19 06:43:22;;;;;;;49.20;33.97;;;;;13.40;100865.00;;;;10485774;28;20553;-77
2021/09/19 06:48:24;;;;;;;42.77;34.30;;;;;13.60;100871.00;;;;10443394;28;20202;-76
2021/09/19 06:53:25;;;;;;;44.60;32.37;;;;;13.70;100872.00;;;;10459406;28;20221;-77
2021/09/19 06:58:27;;;;;;;45.27;33.93;;;;;13.80;100867.00;;;;10492483;28;20279;-77
2021/09/19 07:03:28;;;;;;;44.27;33.57;;;;;13.90;100877.00;;;;10511269;28;20200;-76
2021/09/19 07:08:29;;;;;;;40.53;31.60;;;;;13.90;100884.00;;;;10500973;28;20615;-77
2021/09/19 07:13:31;;;;;;;40.33;31.57;;;;;14.10;100894.00;;;;10484073;28;20735;-77
2021/09/19 07:18:32;;;;;;;40.83;31.03;;;;;14.20;100913.00;;;;10509698;28;20219;-77
2021/09/19 07:23:34;;;;;;;45.33;32.37;;;;;14.50;100913.00;;;;10475065;28;20193;-77
2021/09/19 07:28:35;;;;;;;38.97;31.57;;;;;14.80;100930.00;;;;10460792;28;20706;-77
2021/09/19 07:33:38;;;;;;;38.50;30.80;;;;;14.80;100934.00;;;;10467324;28;20205;-77
2021/09/19 07:38:39;;;;;;;36.83;30.00;;;;;15.00;100931.00;;;;10464781;28;20926;-77
2021/09/19 07:43:40;;;;;;;37.30;29.10;;;;;15.20;100930.00;;;;10482684;28;20189;-77
2021/09/19 07:48:42;;;;;;;34.67;28.73;;;;;15.60;100932.00;;;;10476392;28;20219;-77
2021/09/19 07:53:45;;;;;;;32.93;27.90;;;;;16.10;100943.00;;;;10489862;28;20216;-77
2021/09/19 07:58:47;;;;;;;32.93;26.47;;;;;17.00;100949.00;;;;10469520;28;20201;-77
2021/09/19 08:03:48;;;;;;;28.08;24.65;;;;;17.70;100953.00;;;;10483824;28;20194;-78
2021/09/19 08:08:50;;;;;;;23.52;21.15;;;;;18.30;100957.00;;;;10494968;28;20192;-77
2021/09/19 08:13:56;;;;;;;24.15;20.63;;;;;18.60;100950.00;;;;10471290;28;20243;-77
2021/09/19 08:18:57;;;;;;;22.25;19.45;;;;;19.10;100960.00;;;;10502602;28;20209;-77
2021/09/19 08:23:59;;;;;;;21.48;18.50;;;;;19.90;100962.00;;;;10490683;28;20193;-78
2021/09/19 08:29:01;;;;;;;20.20;17.35;;;;;20.60;100963.00;;;;10473709;28;20189;-77
2021/09/19 08:34:03;;;;;;;18.58;16.48;;;;;21.10;100951.00;;;;10470813;28;20325;-77
2021/09/19 08:39:06;;;;;;;18.05;16.15;;;;;21.50;100954.00;;;;10461551;28;20680;-77
2021/09/19 08:44:08;;;;;;;15.90;14.20;;;;;21.80;100952.00;;;;10470146;28;20688;-79
2021/09/19 08:49:09;;;;;;;15.98;12.68;;;;;21.70;100948.00;;;;10497040;28;20215;-77
2021/09/19 08:54:10;;;;;;;13.52;12.23;;;;;21.60;100948.00;;;;10489902;28;20227;-78
2021/09/19 08:59:11;;;;;;;15.20;12.57;;;;;21.60;100950.00;;;;10481921;28;20262;-77
2021/09/19 09:04:21;;;;;;;13.50;11.82;;;;;21.70;100950.00;;;;10458113;28;20196;-78
2021/09/19 09:09:22;;;;;;;14.60;11.98;;;;;21.90;100953.00;;;;10497548;28;20205;-78
2021/09/19 09:14:25;;;;;;;13.43;11.93;;;;;22.60;100950.00;;;;10488775;28;20562;-78
2021/09/19 09:19:38;;;;;;;11.65;10.45;;;;;22.80;100955.00;;;;10488891;28;20928;-78
2021/09/19 09:24:42;;;;;;;10.98;9.88;;;;;22.60;100953.00;;;;10459527;28;20249;-77
2021/09/19 09:30:08;;;;;;;10.13;9.13;;;;;22.60;100952.00;;;;10515239;28;20341;-78
2021/09/19 09:35:12;;;;;;;9.02;8.13;;;;;22.60;100951.00;;;;10451263;28;20236;-78
2021/09/19 09:40:25;;;;;;;17.52;11.75;;;;;22.90;100951.00;;;;10481726;28;20601;-78
2021/09/19 09:45:27;;;;;;;10.52;8.80;;;;;22.70;100951.00;;;;10449135;28;20596;-78
2021/09/19 09:50:29;;;;;;;13.52;9.82;;;;;22.80;100948.00;;;;10447408;28;20190;-78
2021/09/19 09:55:31;;;;;;;9.32;8.40;;;;;23.30;100951.00;;;;10448036;28;20224;-78
2021/09/19 10:00:33;;;;;;;12.70;9.38;;;;;23.80;100949.00;;;;10472982;28;20252;-78
2021/09/19 10:05:34;;;;;;;8.38;7.53;;;;;24.00;100952.00;;;;10463762;28;20194;-78
2021/09/19 10:10:43;;;;;;;10.50;9.40;;;;;24.10;100948.00;;;;10468312;28;20603;-78
2021/09/19 10:15:45;;;;;;;16.95;12.55;;;;;24.40;100948.00;;;;10520184;28;20913;-78
2021/09/19 10:20:48;;;;;;;18.80;12.85;;;;;24.50;100948.00;;;;10520608;28;20710;-79
2021/09/19 10:26:00;;;;;;;10.57;7.55;;;;;24.60;100956.00;;;;10487468;28;20652;-78
2021/09/19 10:31:08;;;;;;;9.30;8.25;;;;;24.50;100943.00;;;;10463968;28;20837;-78
2021/09/19 10:36:27;;;;;;;15.05;11.02;;;;;24.70;100938.00;;;;10493849;28;20197;-79
2021/09/19 10:41:28;;;;;;;28.15;21.77;;;;;25.00;100930.00;;;;10487025;28;20231;-78
2021/09/19 10:46:35;;;;;;;29.33;20.02;;;;;25.60;100936.00;;;;10461970;28;20201;-78
2021/09/19 10:52:02;;;;;;;19.38;12.50;;;;;25.80;100931.00;;;;10444587;28;20221;-78
2021/09/19 10:57:14;;;;;;;7.97;7.03;;;;;25.70;100933.00;;;;10489139;28;20192;-78
2021/09/19 11:02:29;;;;;;;7.25;6.53;;;;;25.60;100931.00;;;;10494000;28;20730;-78
2021/09/19 11:07:33;;;;;;;6.45;5.88;;;;;25.80;100943.00;;;;10481303;28;20197;-79
2021/09/19 11:12:50;;;;;;;5.60;5.15;;;;;25.60;100943.00;;;;10453141;28;20921;-79
2021/09/19 11:17:52;;;;;;;5.88;5.38;;;;;26.20;100942.00;;;;10468677;28;20220;-79
2021/09/19 11:23:20;;;;;;;6.55;5.40;;;;;26.80;100946.00;;;;10468577;28;20216;-79
2021/09/19 11:28:22;;;;;;;8.10;7.30;;;;;26.90;100942.00;;;;10498562;28;20918;-79
2021/09/19 11:33:24;;;;;;;7.30;6.60;;;;;27.10;100946.00;;;;10467077;28;20228;-79
2021/09/19 11:38:25;;;;;;;7.03;5.80;;;;;26.90;100928.00;;;;10484997;28;20239;-79
2021/09/19 11:43:26;;;;;;;6.90;6.30;;;;;27.00;100930.00;;;;10485438;28;20202;-79
2021/09/19 11:48:29;;;;;;;5.85;5.35;;;;;27.40;100936.00;;;;10483502;28;20219;-78
2021/09/19 11:53:31;;;;;;;5.22;4.72;;;;;27.60;100937.00;;;;10468752;28;20618;-79
2021/09/19 11:58:32;;;;;;;4.82;4.43;;;;;27.80;100931.00;;;;10481343;28;20200;-79
2021/09/19 12:03:35;;;;;;;4.70;4.30;;;;;27.80;100938.00;;;;10481770;28;20575;-79
2021/09/19 12:08:40;;;;;;;7.47;4.80;;;;;27.20;100929.00;;;;10489622;28;20232;-79
2021/09/19 12:13:47;;;;;;;5.22;4.72;;;;;26.80;100929.00;;;;10449729;28;20232;-78
2021/09/19 12:18:50;;;;;;;5.20;4.20;;;;;26.60;100921.00;;;;10433522;28;20205;-79
2021/09/19 12:23:57;;;;;;;5.07;4.63;;;;;26.40;100923.00;;;;10432574;28;20193;-79
2021/09/19 12:29:05;;;;;;;5.03;4.53;;;;;25.90;100918.00;;;;10465962;28;20205;-79
2021/09/19 12:34:14;;;;;;;5.38;4.88;;;;;26.20;100909.00;;;;10503597;28;20208;-78
2021/09/19 12:39:21;;;;;;;4.53;4.13;;;;;26.50;100914.00;;;;10521003;28;20226;-79
2021/09/19 12:44:31;;;;;;;5.20;4.35;;;;;26.80;100910.00;;;;10465409;28;20201;-79
2021/09/19 12:49:41;;;;;;;5.03;4.53;;;;;26.90;100909.00;;;;10449815;28;20271;-79
2021/09/19 12:54:49;;;;;;;4.75;4.35;;;;;26.30;100902.00;;;;10449475;28;20243;-79
2021/09/19 12:59:50;;;;;;;5.40;4.90;;;;;25.80;100899.00;;;;10504478;28;20707;-79
2021/09/19 13:04:52;;;;;;;5.97;4.60;;;;;25.80;100897.00;;;;10459624;28;20205;-80
2021/09/19 13:09:53;;;;;;;6.10;4.88;;;;;25.90;100889.00;;;;10452001;28;20189;-78
2021/09/19 13:14:54;;;;;;;5.25;4.75;;;;;26.00;100891.00;;;;10465856;28;20221;-78
2021/09/19 13:19:56;;;;;;;10.35;7.40;;;;;25.90;100894.00;;;;10498873;28;20205;-79
2021/09/19 13:24:57;;;;;;;5.38;4.85;;;;;25.70;100891.00;;;;10489693;28;20193;-79
2021/09/19 13:29:59;;;;;;;7.57;4.60;;;;;25.70;100890.00;;;;10535652;28;20217;-79
2021/09/19 13:35:00;;;;;;;5.70;5.20;;;;;26.10;100891.00;;;;10457028;28;20244;-79
2021/09/19 13:40:03;;;;;;;7.20;6.50;;;;;25.80;100892.00;;;;10449766;28;20228;-79
2021/09/19 13:45:05;;;;;;;8.80;6.18;;;;;25.70;100889.00;;;;10447329;28;20284;-78
2021/09/19 13:50:07;;;;;;;7.05;4.88;;;;;25.40;100892.00;;;;10448027;28;20197;-79
2021/09/19 13:55:09;;;;;;;8.27;5.13;;;;;25.00;100891.00;;;;10434112;28;20221;-79
2021/09/19 14:00:11;;;;;;;5.88;5.35;;;;;24.80;100896.00;;;;10463092;28;20757;-78
2021/09/19 14:05:12;;;;;;;6.10;5.50;;;;;24.70;100898.00;;;;10469857;28;20220;-78
2021/09/19 14:10:13;;;;;;;6.53;5.80;;;;;24.90;100897.00;;;;10462344;28;20197;-78
2021/09/19 14:15:15;;;;;;;7.03;6.32;;;;;25.40;100889.00;;;;10446180;28;20240;-78
2021/09/19 14:20:16;;;;;;;5.32;4.10;;;;;25.20;100899.00;;;;10447831;28;20211;-79
2021/09/19 14:25:18;;;;;;;4.97;4.57;;;;;24.40;100904.00;;;;10465362;28;20201;-78
2021/09/19 14:30:19;;;;;;;5.55;5.00;;;;;24.40;100912.00;;;;10442816;28;20200;-78
2021/09/19 14:35:21;;;;;;;4.63;4.22;;;;;24.40;100898.00;;;;10452160;28;20217;-78
2021/09/19 14:40:24;;;;;;;5.30;4.30;;;;;24.00;100900.00;;;;10451410;28;20676;-78
2021/09/19 14:45:25;;;;;;;5.35;4.78;;;;;23.70;100899.00;;;;10453506;28;20205;-78
2021/09/19 14:50:27;;;;;;;5.15;4.65;;;;;23.50;100897.00;;;;10453974;28;20564;-78
2021/09/19 14:55:28;;;;;;;6.57;5.13;;;;;23.40;100899.00;;;;10471176;28;20221;-79
2021/09/19 15:00:29;;;;;;;6.50;5.90;;;;;23.40;100911.00;;;;10493464;28;20212;-78
2021/09/19 15:05:31;;;;;;;5.07;4.55;;;;;23.40;100891.00;;;;10511013;28;20245;-78
2021/09/19 15:10:32;;;;;;;6.30;5.60;;;;;23.50;100905.00;;;;10511684;28;20716;-78
2021/09/19 15:15:37;;;;;;;7.03;6.32;;;;;23.50;100909.00;;;;10486269;28;20223;-78
2021/09/19 15:20:38;;;;;;;5.60;5.10;;;;;23.30;100911.00;;;;10494297;28;20200;-78
2021/09/19 15:25:39;;;;;;;7.97;5.63;;;;;23.10;100916.00;;;;10510073;28;20205;-79
2021/09/19 15:30:41;;;;;;;6.38;5.78;;;;;23.00;100922.00;;;;10500132;28;20930;-78
2021/09/19 15:35:42;;;;;;;6.03;5.43;;;;;22.90;100924.00;;;;10495792;28;20221;-78
2021/09/19 15:46:20;;;;;;;5.70;5.15;;;;;22.70;100927.00;;;;10471383;28;20295;-78
2021/09/19 15:51:21;;;;;;;5.18;4.68;;;;;22.50;100919.00;;;;10474764;28;20212;-78
2021/09/19 15:56:23;;;;;;;7.25;6.60;;;;;22.40;100923.00;;;;10436900;28;20253;-78
2021/09/19 16:01:24;;;;;;;6.55;5.88;;;;;22.30;100921.00;;;;10481320;28;20205;-78
2021/09/19 16:06:26;;;;;;;7.93;6.25;;;;;22.30;100929.00;;;;10467583;28;20656;-78
2021/09/19 16:11:27;;;;;;;6.55;5.95;;;;;22.10;100920.00;;;;10450748;28;20217;-79
2021/09/19 16:16:28;;;;;;;7.03;5.60;;;;;22.00;100935.00;;;;10480142;28;20204;-78
2021/09/19 16:21:29;;;;;;;5.78;5.28;;;;;21.80;100928.00;;;;10507221;28;20200;-78
2021/09/19 16:26:31;;;;;;;6.63;4.80;;;;;21.70;100929.00;;;;10471727;28;20205;-78
2021/09/19 16:31:32;;;;;;;5.53;4.63;;;;;21.50;100928.00;;;;10452408;28;20213;-78
2021/09/19 16:36:33;;;;;;;5.32;4.93;;;;;21.30;100932.00;;;;10450601;28;20276;-78
2021/09/19 16:41:34;;;;;;;6.22;4.93;;;;;21.10;100926.00;;;;10451747;28;20217;-79
2021/09/19 16:46:35;;;;;;;5.20;4.65;;;;;20.90;100933.00;;;;10483652;28;20260;-78
2021/09/19 16:51:37;;;;;;;5.28;4.85;;;;;20.80;100940.00;;;;10465320;28;20209;-78
2021/09/19 16:56:38;;;;;;;6.38;5.82;;;;;20.70;100944.00;;;;10466434;28;20202;-79
2021/09/19 17:01:39;;;;;;;5.68;4.82;;;;;20.50;100940.00;;;;10490807;28;20205;-79
2021/09/19 17:06:41;;;;;;;7.80;6.00;;;;;20.30;100944.00;;;;10492326;28;20243;-78
2021/09/19 17:11:42;;;;;;;5.78;5.28;;;;;20.10;100954.00;;;;10507879;28;20213;-78
2021/09/19 17:16:44;;;;;;;5.75;5.20;;;;;19.90;100951.00;;;;10464779;28;20198;-78
2021/09/19 17:21:47;;;;;;;6.28;5.20;;;;;19.70;100958.00;;;;10448578;28;20204;-78
2021/09/19 17:26:48;;;;;;;6.70;6.10;;;;;19.60;100958.00;;;;10482325;28;20204;-78
2021/09/19 17:31:49;;;;;;;8.95;5.88;;;;;19.50;100964.00;;;;10501084;28;20281;-79
2021/09/19 17:36:50;;;;;;;6.35;5.68;;;;;19.30;100965.00;;;;10430578;28;20194;-78
2021/09/19 17:41:51;;;;;;;6.35;5.75;;;;;19.30;100965.00;;;;10447221;28;20222;-78
2021/09/19 17:46:52;;;;;;;6.95;6.30;;;;;19.20;100968.00;;;;10447243;28;20250;-78
2021/09/19 17:51:54;;;;;;;6.53;5.88;;;;;19.10;100985.00;;;;10446216;28;20217;-78
2021/09/19 17:56:55;;;;;;;8.10;6.07;;;;;18.90;100980.00;;;;10465023;28;20198;-78
2021/09/19 18:01:57;;;;;;;6.43;5.82;;;;;18.80;100984.00;;;;10442809;28;20800;-78
2021/09/19 18:06:59;;;;;;;7.35;6.47;;;;;18.70;100985.00;;;;10464261;28;20198;-78
2021/09/19 18:12:01;;;;;;;5.35;4.88;;;;;18.60;100994.00;;;;10446437;28;20225;-78
2021/09/19 18:17:03;;;;;;;7.90;5.07;;;;;18.60;100990.00;;;;10448218;28;20644;-78
2021/09/19 18:22:08;;;;;;;7.07;5.65;;;;;18.60;101003.00;;;;10447979;28;20275;-78
2021/09/19 18:27:09;;;;;;;5.22;4.63;;;;;18.60;101006.00;;;;10446265;28;20217;-78
2021/09/19 18:32:11;;;;;;;8.27;5.88;;;;;18.60;101003.00;;;;10530957;28;20255;-78
2021/09/19 18:37:12;;;;;;;6.50;5.85;;;;;18.60;101006.00;;;;10485961;28;20200;-78
2021/09/19 18:42:13;;;;;;;10.13;5.80;;;;;18.60;101012.00;;;;10503430;28;20274;-78
2021/09/19 18:47:15;;;;;;;6.85;6.00;;;;;18.60;101017.00;;;;10461837;28;20193;-78
2021/09/19 18:52:16;;;;;;;7.22;6.55;;;;;18.50;101026.00;;;;10461497;28;20217;-78
2021/09/19 18:57:17;;;;;;;5.72;5.22;;;;;18.50;101028.00;;;;10450649;28;20216;-78
2021/09/19 19:02:21;;;;;;;5.70;5.15;;;;;18.40;101029.00;;;;10473502;28;20277;-78
2021/09/19 19:07:23;;;;;;;5.32;4.82;;;;;18.40;101032.00;;;;10426636;28;20274;-78
2021/09/19 19:12:25;;;;;;;6.03;5.50;;;;;18.20;101035.00;;;;10427040;28;20219;-78
2021/09/19 19:17:26;;;;;;;7.30;5.78;;;;;18.10;101038.00;;;;10468518;28;20565;-78
2021/09/19 19:22:30;;;;;;;9.27;5.93;;;;;18.00;101041.00;;;;10428128;28;20252;-78
2021/09/19 19:27:31;;;;;;;8.80;6.10;;;;;18.00;101042.00;;;;10466033;28;20203;-78
2021/09/19 19:32:32;;;;;;;8.60;5.90;;;;;18.00;101052.00;;;;10508933;28;20262;-78
2021/09/19 19:37:34;;;;;;;6.75;5.15;;;;;17.90;101051.00;;;;10485944;28;20240;-78
2021/09/19 19:42:36;;;;;;;7.43;5.68;;;;;17.80;101054.00;;;;10432467;28;20224;-77
2021/09/19 19:47:38;;;;;;;5.55;4.75;;;;;17.70;101050.00;;;;10465031;28;20200;-78
2021/09/19 19:52:40;;;;;;;5.68;5.07;;;;;17.60;101054.00;;;;10465699;28;20218;-78
2021/09/19 19:57:41;;;;;;;6.25;5.53;;;;;17.50;101064.00;;;;10485289;28;20663;-78
2021/09/19 20:02:44;;;;;;;6.82;5.03;;;;;17.30;101059.00;;;;10456488;28;20568;-78
2021/09/19 20:07:46;;;;;;;6.30;5.35;;;;;17.20;101073.00;;;;10480476;28;20723;-78
2021/09/19 20:12:50;;;;;;;6.45;4.93;;;;;17.10;101071.00;;;;10448281;28;20209;-78
2021/09/19 20:17:51;;;;;;;6.03;4.90;;;;;17.00;101072.00;;;;10481285;28;20204;-78
2021/09/19 20:23:00;;;;;;;5.72;5.15;;;;;16.90;101069.00;;;;10463831;28;20204;-77
2021/09/19 20:28:03;;;;;;;7.03;4.97;;;;;16.70;101070.00;;;;10467879;28;20231;-77
2021/09/19 20:33:05;;;;;;;9.02;5.90;;;;;16.60;101083.00;;;;10488621;28;20331;-78
2021/09/19 20:38:06;;;;;;;6.82;6.13;;;;;16.50;101089.00;;;;10445977;28;20274;-78
2021/09/19 20:43:07;;;;;;;6.47;5.40;;;;;16.40;101088.00;;;;10464029;28;20262;-78
2021/09/19 20:48:08;;;;;;;8.50;5.88;;;;;16.20;101094.00;;;;10463785;28;20211;-78
2021/09/19 20:53:09;;;;;;;6.25;5.65;;;;;16.10;101089.00;;;;10464438;28;20319;-77
2021/09/19 20:58:11;;;;;;;7.97;5.73;;;;;16.00;101095.00;;;;10494740;28;20193;-77
2021/09/19 21:03:12;;;;;;;7.60;5.93;;;;;15.90;101105.00;;;;10472150;28;20213;-78
2021/09/19 21:08:13;;;;;;;7.17;6.47;;;;;15.80;101108.00;;;;10472239;28;20235;-78
2021/09/19 21:13:14;;;;;;;7.90;5.57;;;;;15.60;101105.00;;;;10488780;28;20240;-78
2021/09/19 21:18:16;;;;;;;6.63;5.93;;;;;15.40;101085.00;;;;10504827;28;20220;-79
2021/09/19 21:23:17;;;;;;;7.10;6.30;;;;;15.30;101090.00;;;;10489648;28;20619;-78
2021/09/19 21:28:18;;;;;;;7.27;6.57;;;;;15.20;101088.00;;;;10475578;28;20213;-78
2021/09/19 21:33:20;;;;;;;7.55;6.85;;;;;15.20;101101.00;;;;10473237;28;20216;-78
2021/09/19 21:38:21;;;;;;;7.17;6.47;;;;;15.10;101110.00;;;;10447001;28;20217;-78
2021/09/19 21:43:22;;;;;;;8.33;6.50;;;;;15.00;101116.00;;;;10446678;28;20671;-78
2021/09/19 21:48:24;;;;;;;8.97;7.37;;;;;14.90;101114.00;;;;10430004;28;20205;-78
2021/09/19 21:53:25;;;;;;;8.40;7.13;;;;;14.80;101123.00;;;;10447314;28;20320;-78
2021/09/19 21:58:27;;;;;;;8.20;7.13;;;;;14.70;101112.00;;;;10509841;28;20305;-78
2021/09/19 22:03:28;;;;;;;7.60;6.90;;;;;14.50;101113.00;;;;10447501;28;20193;-78
2021/09/19 22:08:30;;;;;;;8.10;6.63;;;;;14.30;101100.00;;;;10429080;28;20712;-77
2021/09/19 22:13:36;;;;;;;9.60;7.07;;;;;14.20;101094.00;;;;10462949;28;20247;-77
2021/09/19 22:18:38;;;;;;;8.83;7.93;;;;;14.10;101104.00;;;;10430025;28;20205;-78
2021/09/19 22:23:39;;;;;;;9.50;8.50;;;;;14.00;101091.00;;;;10446277;28;20249;-77
2021/09/19 22:28:41;;;;;;;10.23;8.73;;;;;14.00;101102.00;;;;10461479;28;20628;-77
2021/09/19 22:33:42;;;;;;;9.83;8.47;;;;;13.90;101106.00;;;;10445903;28;20256;-77
2021/09/19 22:38:43;;;;;;;8.97;7.53;;;;;13.90;101107.00;;;;10463276;28;20209;-77
2021/09/19 22:43:45;;;;;;;11.80;9.33;;;;;13.80;101110.00;;;;10431628;28;20190;-77
2021/09/19 22:48:46;;;;;;;8.87;7.67;;;;;13.70;101100.00;;;;10445291;28;20213;-77
2021/09/19 22:53:47;;;;;;;11.73;8.37;;;;;13.70;101100.00;;;;10429617;28;20614;-77
2021/09/19 22:58:48;;;;;;;10.83;8.97;;;;;13.60;101102.00;;;;10461683;28;20197;-77
2021/09/19 23:03:49;;;;;;;11.43;9.60;;;;;13.50;101104.00;;;;10470129;28;20198;-77
2021/09/19 23:08:51;;;;;;;11.40;8.83;;;;;13.50;101103.00;;;;10478159;28;20209;-77
2021/09/19 23:13:52;;;;;;;9.80;8.47;;;;;13.50;101103.00;;;;10508171;28;20701;-78
2021/09/19 23:18:53;;;;;;;10.27;8.60;;;;;13.40;101108.00;;;;10493450;28;20794;-77
2021/09/19 23:23:54;;;;;;;12.50;9.00;;;;;13.30;101113.00;;;;10492378;28;20192;-77
2021/09/19 23:28:55;;;;;;;11.60;8.40;;;;;13.20;101117.00;;;;10484108;28;20205;-78
2021/09/19 23:33:56;;;;;;;10.07;8.20;;;;;13.20;101118.00;;;;10467819;28;20217;-77
2021/09/19 23:38:58;;;;;;;10.10;7.87;;;;;13.10;101128.00;;;;10484366;28;20221;-77
2021/09/19 23:43:59;;;;;;;10.83;8.47;;;;;13.00;101130.00;;;;10457586;28;20222;-77
2021/09/19 23:49:00;;;;;;;12.63;8.67;;;;;12.90;101132.00;;;;10490894;28;20266;-78
2021/09/19 23:54:01;;;;;;;11.43;9.20;;;;;12.90;101132.00;;;;10475092;28;20229;-78
2021/09/19 23:59:03;;;;;;;10.47;9.10;;;;;12.90;101135.00;;;;10488572;28;20189;-78
